sensor_id;sensor_type;location;lat;lon;timestamp;P1;durP1;ratioP1;P2;durP2;ratioP2
43883;SDS011;29544;52.018;5.810;2023-05-29T00:02:01;3.80;;;1.60;;
43883;SDS011;29544;52.018;5.810;2023-05-29T00:04:26;4.73;;;2.00;;
43883;SDS011;29544;52.018;5.810;2023-05-29T00:06:52;3.07;;;1.67;;
43883;SDS011;29544;52.018;5.810;2023-05-29T00:09:17;8.53;;;2.07;;
43883;SDS011;29544;52.018;5.810;2023-05-29T00:11:43;5.30;;;2.25;;
43883;SDS011;29544;52.018;5.810;2023-05-29T00:14:09;3.50;;;1.60;;
43883;SDS011;29544;52.018;5.810;2023-05-29T00:16:38;4.50;;;1.58;;
43883;SDS011;29544;52.018;5.810;2023-05-29T00:19:04;5.65;;;2.15;;
43883;SDS011;29544;52.018;5.810;2023-05-29T00:21:30;4.40;;;1.77;;
43883;SDS011;29544;52.018;5.810;2023-05-29T00:23:55;4.30;;;1.73;;
43883;SDS011;29544;52.018;5.810;2023-05-29T00:26:21;5.53;;;1.90;;
43883;SDS011;29544;52.018;5.810;2023-05-29T00:28:46;3.73;;;2.03;;
43883;SDS011;29544;52.018;5.810;2023-05-29T00:31:12;3.87;;;1.57;;
43883;SDS011;29544;52.018;5.810;2023-05-29T00:33:37;4.63;;;2.20;;
43883;SDS011;29544;52.018;5.810;2023-05-29T00:36:03;3.73;;;1.57;;
43883;SDS011;29544;52.018;5.810;2023-05-29T00:38:30;5.30;;;1.80;;
43883;SDS011;29544;52.018;5.810;2023-05-29T00:40:55;8.43;;;2.43;;
43883;SDS011;29544;52.018;5.810;2023-05-29T00:43:21;4.30;;;1.80;;
43883;SDS011;29544;52.018;5.810;2023-05-29T00:45:46;4.40;;;1.73;;
43883;SDS011;29544;52.018;5.810;2023-05-29T00:48:12;4.93;;;2.20;;
43883;SDS011;29544;52.018;5.810;2023-05-29T00:50:38;5.53;;;2.07;;
43883;SDS011;29544;52.018;5.810;2023-05-29T00:53:03;3.78;;;1.70;;
43883;SDS011;29544;52.018;5.810;2023-05-29T00:55:31;4.78;;;1.90;;
43883;SDS011;29544;52.018;5.810;2023-05-29T00:57:56;5.22;;;1.85;;
43883;SDS011;29544;52.018;5.810;2023-05-29T01:00:22;5.10;;;1.93;;
43883;SDS011;29544;52.018;5.810;2023-05-29T01:02:48;4.15;;;2.13;;
43883;SDS011;29544;52.018;5.810;2023-05-29T01:05:14;7.03;;;2.58;;
43883;SDS011;29544;52.018;5.810;2023-05-29T01:07:40;4.78;;;2.17;;
43883;SDS011;29544;52.018;5.810;2023-05-29T01:10:07;6.22;;;2.28;;
43883;SDS011;29544;52.018;5.810;2023-05-29T01:12:36;4.35;;;1.95;;
43883;SDS011;29544;52.018;5.810;2023-05-29T01:15:18;5.90;;;2.17;;
43883;SDS011;29544;52.018;5.810;2023-05-29T01:18:19;5.40;;;2.17;;
43883;SDS011;29544;52.018;5.810;2023-05-29T01:21:27;5.50;;;2.05;;
43883;SDS011;29544;52.018;5.810;2023-05-29T01:24:09;5.15;;;2.00;;
43883;SDS011;29544;52.018;5.810;2023-05-29T01:29:34;5.22;;;2.08;;
43883;SDS011;29544;52.018;5.810;2023-05-29T01:32:02;5.57;;;1.90;;
43883;SDS011;29544;52.018;5.810;2023-05-29T01:34:29;3.17;;;1.60;;
43883;SDS011;29544;52.018;5.810;2023-05-29T01:36:55;4.17;;;1.90;;
43883;SDS011;29544;52.018;5.810;2023-05-29T01:39:20;5.17;;;2.10;;
43883;SDS011;29544;52.018;5.810;2023-05-29T01:41:47;6.07;;;1.77;;
43883;SDS011;29544;52.018;5.810;2023-05-29T01:44:13;4.38;;;1.58;;
43883;SDS011;29544;52.018;5.810;2023-05-29T01:46:43;4.00;;;1.70;;
43883;SDS011;29544;52.018;5.810;2023-05-29T01:49:10;4.10;;;1.63;;
43883;SDS011;29544;52.018;5.810;2023-05-29T01:51:36;5.70;;;2.50;;
43883;SDS011;29544;52.018;5.810;2023-05-29T01:54:04;5.60;;;2.20;;
43883;SDS011;29544;52.018;5.810;2023-05-29T01:56:30;4.10;;;1.60;;
43883;SDS011;29544;52.018;5.810;2023-05-29T01:58:56;5.80;;;1.88;;
43883;SDS011;29544;52.018;5.810;2023-05-29T02:01:23;6.47;;;2.53;;
43883;SDS011;29544;52.018;5.810;2023-05-29T02:03:48;6.28;;;2.03;;
43883;SDS011;29544;52.018;5.810;2023-05-29T02:06:15;5.35;;;1.60;;
43883;SDS011;29544;52.018;5.810;2023-05-29T02:08:41;4.70;;;1.87;;
43883;SDS011;29544;52.018;5.810;2023-05-29T02:11:07;4.10;;;2.10;;
43883;SDS011;29544;52.018;5.810;2023-05-29T02:13:32;4.70;;;1.70;;
43883;SDS011;29544;52.018;5.810;2023-05-29T02:15:58;5.05;;;2.00;;
43883;SDS011;29544;52.018;5.810;2023-05-29T02:18:24;4.57;;;1.87;;
43883;SDS011;29544;52.018;5.810;2023-05-29T02:20:50;5.22;;;1.70;;
43883;SDS011;29544;52.018;5.810;2023-05-29T02:23:15;3.73;;;1.60;;
43883;SDS011;29544;52.018;5.810;2023-05-29T02:25:41;5.10;;;1.77;;
43883;SDS011;29544;52.018;5.810;2023-05-29T02:28:07;5.90;;;2.00;;
43883;SDS011;29544;52.018;5.810;2023-05-29T02:30:33;3.63;;;1.70;;
43883;SDS011;29544;52.018;5.810;2023-05-29T02:35:25;5.97;;;1.70;;
43883;SDS011;29544;52.018;5.810;2023-05-29T02:37:51;5.60;;;1.77;;
43883;SDS011;29544;52.018;5.810;2023-05-29T02:40:17;4.43;;;1.95;;
43883;SDS011;29544;52.018;5.810;2023-05-29T02:42:43;5.93;;;2.00;;
43883;SDS011;29544;52.018;5.810;2023-05-29T02:45:09;4.60;;;1.85;;
43883;SDS011;29544;52.018;5.810;2023-05-29T02:47:35;6.50;;;1.93;;
43883;SDS011;29544;52.018;5.810;2023-05-29T02:50:01;5.47;;;2.05;;
43883;SDS011;29544;52.018;5.810;2023-05-29T02:52:27;7.30;;;2.17;;
43883;SDS011;29544;52.018;5.810;2023-05-29T02:54:53;4.73;;;1.70;;
43883;SDS011;29544;52.018;5.810;2023-05-29T02:57:20;5.72;;;2.00;;
43883;SDS011;29544;52.018;5.810;2023-05-29T02:59:45;4.97;;;2.03;;
43883;SDS011;29544;52.018;5.810;2023-05-29T03:02:11;6.18;;;2.05;;
43883;SDS011;29544;52.018;5.810;2023-05-29T03:04:37;5.28;;;1.92;;
43883;SDS011;29544;52.018;5.810;2023-05-29T03:07:03;7.17;;;1.80;;
43883;SDS011;29544;52.018;5.810;2023-05-29T03:09:28;5.03;;;1.83;;
43883;SDS011;29544;52.018;5.810;2023-05-29T03:11:54;4.87;;;1.83;;
43883;SDS011;29544;52.018;5.810;2023-05-29T03:14:19;6.13;;;2.10;;
43883;SDS011;29544;52.018;5.810;2023-05-29T03:16:46;4.65;;;1.75;;
43883;SDS011;29544;52.018;5.810;2023-05-29T03:19:12;9.68;;;2.42;;
43883;SDS011;29544;52.018;5.810;2023-05-29T03:21:38;5.30;;;1.77;;
43883;SDS011;29544;52.018;5.810;2023-05-29T03:24:03;4.40;;;2.03;;
43883;SDS011;29544;52.018;5.810;2023-05-29T03:26:29;5.22;;;1.90;;
43883;SDS011;29544;52.018;5.810;2023-05-29T03:28:55;4.50;;;1.53;;
43883;SDS011;29544;52.018;5.810;2023-05-29T03:31:20;5.03;;;1.70;;
43883;SDS011;29544;52.018;5.810;2023-05-29T03:33:46;4.68;;;1.50;;
43883;SDS011;29544;52.018;5.810;2023-05-29T03:38:38;5.35;;;1.40;;
43883;SDS011;29544;52.018;5.810;2023-05-29T03:41:04;4.30;;;1.67;;
43883;SDS011;29544;52.018;5.810;2023-05-29T03:43:30;5.43;;;2.03;;
43883;SDS011;29544;52.018;5.810;2023-05-29T03:45:55;5.03;;;1.73;;
43883;SDS011;29544;52.018;5.810;2023-05-29T03:48:21;5.10;;;1.90;;
43883;SDS011;29544;52.018;5.810;2023-05-29T03:50:47;5.57;;;1.80;;
43883;SDS011;29544;52.018;5.810;2023-05-29T03:53:12;6.47;;;2.00;;
43883;SDS011;29544;52.018;5.810;2023-05-29T03:55:38;5.60;;;2.17;;
43883;SDS011;29544;52.018;5.810;2023-05-29T03:58:03;6.00;;;2.10;;
43883;SDS011;29544;52.018;5.810;2023-05-29T04:00:29;8.23;;;2.17;;
43883;SDS011;29544;52.018;5.810;2023-05-29T04:02:55;6.95;;;1.80;;
43883;SDS011;29544;52.018;5.810;2023-05-29T04:05:21;5.28;;;1.63;;
43883;SDS011;29544;52.018;5.810;2023-05-29T04:07:46;5.20;;;2.10;;
43883;SDS011;29544;52.018;5.810;2023-05-29T04:10:12;6.37;;;2.57;;
43883;SDS011;29544;52.018;5.810;2023-05-29T04:12:38;4.97;;;1.80;;
43883;SDS011;29544;52.018;5.810;2023-05-29T04:15:03;4.23;;;1.73;;
43883;SDS011;29544;52.018;5.810;2023-05-29T04:19:55;5.70;;;1.98;;
43883;SDS011;29544;52.018;5.810;2023-05-29T04:22:21;5.37;;;1.63;;
43883;SDS011;29544;52.018;5.810;2023-05-29T04:24:46;6.03;;;1.80;;
43883;SDS011;29544;52.018;5.810;2023-05-29T04:27:12;6.03;;;1.87;;
43883;SDS011;29544;52.018;5.810;2023-05-29T04:29:41;6.75;;;1.70;;
43883;SDS011;29544;52.018;5.810;2023-05-29T04:32:07;6.55;;;1.80;;
43883;SDS011;29544;52.018;5.810;2023-05-29T04:34:34;5.45;;;1.88;;
43883;SDS011;29544;52.018;5.810;2023-05-29T04:37:00;6.15;;;2.22;;
43883;SDS011;29544;52.018;5.810;2023-05-29T04:39:27;5.82;;;1.80;;
43883;SDS011;29544;52.018;5.810;2023-05-29T04:41:53;5.03;;;1.90;;
43883;SDS011;29544;52.018;5.810;2023-05-29T04:44:19;5.17;;;2.00;;
43883;SDS011;29544;52.018;5.810;2023-05-29T04:46:44;3.97;;;1.53;;
43883;SDS011;29544;52.018;5.810;2023-05-29T04:49:10;5.73;;;2.00;;
43883;SDS011;29544;52.018;5.810;2023-05-29T04:51:37;7.03;;;2.25;;
43883;SDS011;29544;52.018;5.810;2023-05-29T04:54:05;5.43;;;1.65;;
43883;SDS011;29544;52.018;5.810;2023-05-29T04:56:31;4.45;;;1.40;;
43883;SDS011;29544;52.018;5.810;2023-05-29T04:58:57;7.37;;;2.33;;
43883;SDS011;29544;52.018;5.810;2023-05-29T05:01:23;6.90;;;1.73;;
43883;SDS011;29544;52.018;5.810;2023-05-29T05:03:50;5.55;;;1.77;;
43883;SDS011;29544;52.018;5.810;2023-05-29T05:06:17;6.18;;;2.08;;
43883;SDS011;29544;52.018;5.810;2023-05-29T05:08:43;5.63;;;1.90;;
43883;SDS011;29544;52.018;5.810;2023-05-29T05:11:09;6.17;;;2.00;;
43883;SDS011;29544;52.018;5.810;2023-05-29T05:13:34;7.57;;;2.10;;
43883;SDS011;29544;52.018;5.810;2023-05-29T05:16:00;6.33;;;2.00;;
43883;SDS011;29544;52.018;5.810;2023-05-29T05:18:26;7.47;;;2.03;;
43883;SDS011;29544;52.018;5.810;2023-05-29T05:20:51;7.07;;;2.20;;
43883;SDS011;29544;52.018;5.810;2023-05-29T05:23:17;7.77;;;1.93;;
43883;SDS011;29544;52.018;5.810;2023-05-29T05:25:42;6.20;;;1.70;;
43883;SDS011;29544;52.018;5.810;2023-05-29T05:28:08;5.93;;;1.90;;
43883;SDS011;29544;52.018;5.810;2023-05-29T05:30:33;6.37;;;2.17;;
43883;SDS011;29544;52.018;5.810;2023-05-29T05:32:59;4.87;;;1.40;;
43883;SDS011;29544;52.018;5.810;2023-05-29T05:35:24;5.73;;;1.80;;
43883;SDS011;29544;52.018;5.810;2023-05-29T05:37:50;6.93;;;2.03;;
43883;SDS011;29544;52.018;5.810;2023-05-29T05:40:15;6.77;;;1.70;;
43883;SDS011;29544;52.018;5.810;2023-05-29T05:42:41;10.13;;;2.03;;
43883;SDS011;29544;52.018;5.810;2023-05-29T05:45:07;6.03;;;1.63;;
43883;SDS011;29544;52.018;5.810;2023-05-29T05:47:33;7.35;;;2.03;;
43883;SDS011;29544;52.018;5.810;2023-05-29T05:49:58;4.67;;;1.40;;
43883;SDS011;29544;52.018;5.810;2023-05-29T05:52:24;5.57;;;1.63;;
43883;SDS011;29544;52.018;5.810;2023-05-29T05:57:16;5.82;;;1.77;;
43883;SDS011;29544;52.018;5.810;2023-05-29T05:59:41;5.87;;;1.70;;
43883;SDS011;29544;52.018;5.810;2023-05-29T06:02:07;4.03;;;1.53;;
43883;SDS011;29544;52.018;5.810;2023-05-29T06:04:32;7.57;;;2.10;;
43883;SDS011;29544;52.018;5.810;2023-05-29T06:06:58;8.37;;;2.13;;
43883;SDS011;29544;52.018;5.810;2023-05-29T06:09:24;5.25;;;1.75;;
43883;SDS011;29544;52.018;5.810;2023-05-29T06:11:50;5.55;;;1.90;;
43883;SDS011;29544;52.018;5.810;2023-05-29T06:14:16;4.57;;;1.50;;
43883;SDS011;29544;52.018;5.810;2023-05-29T06:16:41;6.47;;;2.10;;
43883;SDS011;29544;52.018;5.810;2023-05-29T06:19:07;6.50;;;2.22;;
43883;SDS011;29544;52.018;5.810;2023-05-29T06:21:33;7.13;;;2.00;;
43883;SDS011;29544;52.018;5.810;2023-05-29T06:23:59;7.38;;;1.92;;
43883;SDS011;29544;52.018;5.810;2023-05-29T06:26:25;5.63;;;2.00;;
43883;SDS011;29544;52.018;5.810;2023-05-29T06:31:17;9.43;;;2.25;;
43883;SDS011;29544;52.018;5.810;2023-05-29T06:33:42;6.30;;;1.80;;
43883;SDS011;29544;52.018;5.810;2023-05-29T06:36:09;7.25;;;1.98;;
43883;SDS011;29544;52.018;5.810;2023-05-29T06:38:34;6.13;;;2.10;;
43883;SDS011;29544;52.018;5.810;2023-05-29T06:41:00;6.63;;;1.87;;
43883;SDS011;29544;52.018;5.810;2023-05-29T06:43:25;5.87;;;1.83;;
43883;SDS011;29544;52.018;5.810;2023-05-29T06:45:51;8.80;;;2.65;;
43883;SDS011;29544;52.018;5.810;2023-05-29T06:48:17;4.83;;;1.77;;
43883;SDS011;29544;52.018;5.810;2023-05-29T06:50:42;4.67;;;1.87;;
43883;SDS011;29544;52.018;5.810;2023-05-29T06:53:08;4.70;;;1.67;;
43883;SDS011;29544;52.018;5.810;2023-05-29T06:55:33;5.87;;;2.00;;
43883;SDS011;29544;52.018;5.810;2023-05-29T06:57:59;4.67;;;1.33;;
43883;SDS011;29544;52.018;5.810;2023-05-29T07:00:25;5.13;;;1.80;;
43883;SDS011;29544;52.018;5.810;2023-05-29T07:02:50;4.30;;;1.83;;
43883;SDS011;29544;52.018;5.810;2023-05-29T07:05:16;5.93;;;1.43;;
43883;SDS011;29544;52.018;5.810;2023-05-29T07:07:41;7.57;;;2.00;;
43883;SDS011;29544;52.018;5.810;2023-05-29T07:10:07;5.60;;;1.73;;
43883;SDS011;29544;52.018;5.810;2023-05-29T07:12:33;5.03;;;1.80;;
43883;SDS011;29544;52.018;5.810;2023-05-29T07:14:58;4.47;;;1.57;;
43883;SDS011;29544;52.018;5.810;2023-05-29T07:17:24;6.57;;;1.80;;
43883;SDS011;29544;52.018;5.810;2023-05-29T07:19:49;7.13;;;1.97;;
43883;SDS011;29544;52.018;5.810;2023-05-29T07:22:15;5.27;;;1.70;;
43883;SDS011;29544;52.018;5.810;2023-05-29T07:24:41;8.93;;;1.90;;
43883;SDS011;29544;52.018;5.810;2023-05-29T07:27:06;8.30;;;2.53;;
43883;SDS011;29544;52.018;5.810;2023-05-29T07:29:32;8.90;;;2.27;;
43883;SDS011;29544;52.018;5.810;2023-05-29T07:31:58;6.97;;;1.80;;
43883;SDS011;29544;52.018;5.810;2023-05-29T07:34:23;9.03;;;2.00;;
43883;SDS011;29544;52.018;5.810;2023-05-29T07:36:55;6.77;;;1.63;;
43883;SDS011;29544;52.018;5.810;2023-05-29T07:39:21;9.80;;;2.22;;
43883;SDS011;29544;52.018;5.810;2023-05-29T07:41:47;8.85;;;2.17;;
43883;SDS011;29544;52.018;5.810;2023-05-29T07:44:13;11.07;;;2.47;;
43883;SDS011;29544;52.018;5.810;2023-05-29T07:46:38;9.27;;;2.53;;
43883;SDS011;29544;52.018;5.810;2023-05-29T07:49:03;11.10;;;2.63;;
43883;SDS011;29544;52.018;5.810;2023-05-29T07:51:29;10.03;;;2.20;;
43883;SDS011;29544;52.018;5.810;2023-05-29T07:53:55;10.30;;;2.40;;
43883;SDS011;29544;52.018;5.810;2023-05-29T07:56:21;14.70;;;2.90;;
43883;SDS011;29544;52.018;5.810;2023-05-29T07:58:47;7.33;;;2.20;;
43883;SDS011;29544;52.018;5.810;2023-05-29T08:01:12;8.57;;;2.00;;
43883;SDS011;29544;52.018;5.810;2023-05-29T08:03:38;9.02;;;2.00;;
43883;SDS011;29544;52.018;5.810;2023-05-29T08:06:06;10.63;;;2.22;;
43883;SDS011;29544;52.018;5.810;2023-05-29T08:08:31;10.33;;;2.57;;
43883;SDS011;29544;52.018;5.810;2023-05-29T08:10:57;11.63;;;3.07;;
43883;SDS011;29544;52.018;5.810;2023-05-29T08:13:22;8.50;;;2.17;;
43883;SDS011;29544;52.018;5.810;2023-05-29T08:15:48;9.83;;;3.37;;
43883;SDS011;29544;52.018;5.810;2023-05-29T08:18:13;5.07;;;1.60;;
43883;SDS011;29544;52.018;5.810;2023-05-29T08:20:39;13.13;;;2.70;;
43883;SDS011;29544;52.018;5.810;2023-05-29T08:23:05;11.80;;;2.53;;
43883;SDS011;29544;52.018;5.810;2023-05-29T08:25:30;12.60;;;3.30;;
43883;SDS011;29544;52.018;5.810;2023-05-29T08:27:56;8.67;;;2.37;;
43883;SDS011;29544;52.018;5.810;2023-05-29T08:30:22;12.35;;;2.60;;
43883;SDS011;29544;52.018;5.810;2023-05-29T08:32:47;11.17;;;2.73;;
43883;SDS011;29544;52.018;5.810;2023-05-29T08:35:13;15.90;;;3.27;;
43883;SDS011;29544;52.018;5.810;2023-05-29T08:37:39;14.68;;;3.17;;
43883;SDS011;29544;52.018;5.810;2023-05-29T08:40:05;9.80;;;2.57;;
43883;SDS011;29544;52.018;5.810;2023-05-29T08:42:34;8.63;;;2.53;;
43883;SDS011;29544;52.018;5.810;2023-05-29T08:45:05;9.77;;;2.25;;
43883;SDS011;29544;52.018;5.810;2023-05-29T08:47:33;7.70;;;2.20;;
43883;SDS011;29544;52.018;5.810;2023-05-29T08:50:00;7.38;;;2.30;;
43883;SDS011;29544;52.018;5.810;2023-05-29T08:54:54;8.90;;;2.28;;
43883;SDS011;29544;52.018;5.810;2023-05-29T08:57:20;9.35;;;2.58;;
43883;SDS011;29544;52.018;5.810;2023-05-29T08:59:50;11.15;;;2.60;;
43883;SDS011;29544;52.018;5.810;2023-05-29T09:02:17;8.75;;;2.50;;
43883;SDS011;29544;52.018;5.810;2023-05-29T09:04:43;11.07;;;2.80;;
43883;SDS011;29544;52.018;5.810;2023-05-29T09:07:17;9.32;;;3.00;;
43883;SDS011;29544;52.018;5.810;2023-05-29T09:09:44;8.10;;;2.03;;
43883;SDS011;29544;52.018;5.810;2023-05-29T09:12:13;11.48;;;2.88;;
43883;SDS011;29544;52.018;5.810;2023-05-29T09:14:42;10.88;;;2.80;;
43883;SDS011;29544;52.018;5.810;2023-05-29T09:17:09;7.22;;;2.17;;
43883;SDS011;29544;52.018;5.810;2023-05-29T09:19:36;6.43;;;2.10;;
43883;SDS011;29544;52.018;5.810;2023-05-29T09:24:31;9.30;;;2.55;;
43883;SDS011;29544;52.018;5.810;2023-05-29T09:26:58;6.90;;;2.10;;
43883;SDS011;29544;52.018;5.810;2023-05-29T09:29:25;7.63;;;2.20;;
43883;SDS011;29544;52.018;5.810;2023-05-29T09:31:51;9.15;;;2.13;;
43883;SDS011;29544;52.018;5.810;2023-05-29T09:34:17;6.77;;;1.83;;
43883;SDS011;29544;52.018;5.810;2023-05-29T09:36:43;9.40;;;2.90;;
43883;SDS011;29544;52.018;5.810;2023-05-29T09:39:08;7.80;;;2.23;;
43883;SDS011;29544;52.018;5.810;2023-05-29T09:41:42;8.75;;;2.65;;
43883;SDS011;29544;52.018;5.810;2023-05-29T09:44:11;8.02;;;2.38;;
43883;SDS011;29544;52.018;5.810;2023-05-29T09:46:38;8.15;;;2.72;;
43883;SDS011;29544;52.018;5.810;2023-05-29T09:49:08;10.67;;;2.60;;
43883;SDS011;29544;52.018;5.810;2023-05-29T09:51:36;4.85;;;2.05;;
43883;SDS011;29544;52.018;5.810;2023-05-29T09:54:15;6.28;;;1.90;;
43883;SDS011;29544;52.018;5.810;2023-05-29T09:56:44;7.50;;;2.15;;
43883;SDS011;29544;52.018;5.810;2023-05-29T09:59:11;8.20;;;2.47;;
43883;SDS011;29544;52.018;5.810;2023-05-29T10:01:38;8.88;;;2.53;;
43883;SDS011;29544;52.018;5.810;2023-05-29T10:04:07;12.63;;;2.83;;
43883;SDS011;29544;52.018;5.810;2023-05-29T10:06:35;7.32;;;2.42;;
43883;SDS011;29544;52.018;5.810;2023-05-29T10:09:01;8.85;;;2.08;;
43883;SDS011;29544;52.018;5.810;2023-05-29T10:11:28;7.45;;;1.85;;
43883;SDS011;29544;52.018;5.810;2023-05-29T10:13:55;6.50;;;2.22;;
43883;SDS011;29544;52.018;5.810;2023-05-29T10:16:22;6.65;;;2.20;;
43883;SDS011;29544;52.018;5.810;2023-05-29T10:18:55;7.88;;;2.22;;
43883;SDS011;29544;52.018;5.810;2023-05-29T10:21:22;8.95;;;2.30;;
43883;SDS011;29544;52.018;5.810;2023-05-29T10:23:52;11.40;;;2.38;;
43883;SDS011;29544;52.018;5.810;2023-05-29T10:26:21;11.35;;;2.80;;
43883;SDS011;29544;52.018;5.810;2023-05-29T10:28:50;13.30;;;2.78;;
43883;SDS011;29544;52.018;5.810;2023-05-29T10:34:35;7.00;;;2.00;;
43883;SDS011;29544;52.018;5.810;2023-05-29T10:40:10;7.25;;;2.55;;
43883;SDS011;29544;52.018;5.810;2023-05-29T10:42:49;8.75;;;2.50;;
43883;SDS011;29544;52.018;5.810;2023-05-29T10:48:42;15.60;;;2.40;;
43883;SDS011;29544;52.018;5.810;2023-05-29T10:50:45;18.20;;;3.28;;
43883;SDS011;29544;52.018;5.810;2023-05-29T10:53:16;11.18;;;2.45;;
43883;SDS011;29544;52.018;5.810;2023-05-29T10:55:43;11.98;;;3.17;;
43883;SDS011;29544;52.018;5.810;2023-05-29T10:58:14;11.10;;;2.80;;
43883;SDS011;29544;52.018;5.810;2023-05-29T11:00:43;7.05;;;2.42;;
43883;SDS011;29544;52.018;5.810;2023-05-29T11:03:11;10.02;;;2.65;;
43883;SDS011;29544;52.018;5.810;2023-05-29T11:05:59;11.88;;;2.47;;
43883;SDS011;29544;52.018;5.810;2023-05-29T11:11:13;9.38;;;2.95;;
43883;SDS011;29544;52.018;5.810;2023-05-29T11:13:40;14.60;;;3.20;;
43883;SDS011;29544;52.018;5.810;2023-05-29T11:16:11;10.20;;;3.10;;
43883;SDS011;29544;52.018;5.810;2023-05-29T11:18:50;7.80;;;2.30;;
43883;SDS011;29544;52.018;5.810;2023-05-29T11:24:06;11.52;;;2.90;;
43883;SDS011;29544;52.018;5.810;2023-05-29T11:26:32;8.43;;;2.10;;
43883;SDS011;29544;52.018;5.810;2023-05-29T11:28:58;11.40;;;2.78;;
43883;SDS011;29544;52.018;5.810;2023-05-29T11:31:25;10.52;;;2.42;;
43883;SDS011;29544;52.018;5.810;2023-05-29T11:33:53;8.70;;;2.60;;
43883;SDS011;29544;52.018;5.810;2023-05-29T11:36:21;11.93;;;3.17;;
43883;SDS011;29544;52.018;5.810;2023-05-29T11:38:47;14.43;;;2.90;;
43883;SDS011;29544;52.018;5.810;2023-05-29T11:41:12;7.70;;;2.57;;
43883;SDS011;29544;52.018;5.810;2023-05-29T11:43:38;10.43;;;3.03;;
43883;SDS011;29544;52.018;5.810;2023-05-29T11:46:19;10.50;;;3.00;;
43883;SDS011;29544;52.018;5.810;2023-05-29T11:48:46;12.52;;;3.35;;
43883;SDS011;29544;52.018;5.810;2023-05-29T11:51:11;9.88;;;2.85;;
43883;SDS011;29544;52.018;5.810;2023-05-29T11:53:41;13.07;;;2.80;;
43883;SDS011;29544;52.018;5.810;2023-05-29T11:56:08;10.05;;;2.67;;
43883;SDS011;29544;52.018;5.810;2023-05-29T11:58:36;11.57;;;3.20;;
43883;SDS011;29544;52.018;5.810;2023-05-29T12:01:03;14.23;;;3.60;;
43883;SDS011;29544;52.018;5.810;2023-05-29T12:03:28;11.53;;;2.43;;
43883;SDS011;29544;52.018;5.810;2023-05-29T12:05:54;11.70;;;3.00;;
43883;SDS011;29544;52.018;5.810;2023-05-29T12:08:24;14.43;;;4.38;;
43883;SDS011;29544;52.018;5.810;2023-05-29T12:10:51;12.80;;;3.70;;
43883;SDS011;29544;52.018;5.810;2023-05-29T12:13:21;15.00;;;4.45;;
43883;SDS011;29544;52.018;5.810;2023-05-29T12:15:49;11.43;;;3.65;;
43883;SDS011;29544;52.018;5.810;2023-05-29T12:18:17;12.30;;;3.58;;
43883;SDS011;29544;52.018;5.810;2023-05-29T12:20:42;9.40;;;2.90;;
43883;SDS011;29544;52.018;5.810;2023-05-29T12:23:08;9.03;;;3.53;;
43883;SDS011;29544;52.018;5.810;2023-05-29T12:25:34;10.30;;;2.87;;
43883;SDS011;29544;52.018;5.810;2023-05-29T12:28:03;8.20;;;2.60;;
43883;SDS011;29544;52.018;5.810;2023-05-29T12:30:29;8.15;;;2.67;;
43883;SDS011;29544;52.018;5.810;2023-05-29T12:35:22;11.43;;;3.00;;
43883;SDS011;29544;52.018;5.810;2023-05-29T12:37:51;14.73;;;4.00;;
43883;SDS011;29544;52.018;5.810;2023-05-29T12:40:29;10.73;;;2.78;;
43883;SDS011;29544;52.018;5.810;2023-05-29T12:42:59;9.80;;;3.22;;
43883;SDS011;29544;52.018;5.810;2023-05-29T12:45:28;12.75;;;3.50;;
43883;SDS011;29544;52.018;5.810;2023-05-29T12:47:56;10.00;;;3.53;;
43883;SDS011;29544;52.018;5.810;2023-05-29T12:50:24;12.30;;;3.42;;
43883;SDS011;29544;52.018;5.810;2023-05-29T12:55:22;13.80;;;3.22;;
43883;SDS011;29544;52.018;5.810;2023-05-29T12:57:47;11.40;;;3.20;;
43883;SDS011;29544;52.018;5.810;2023-05-29T13:00:13;10.63;;;3.67;;
43883;SDS011;29544;52.018;5.810;2023-05-29T13:02:39;8.32;;;3.28;;
43883;SDS011;29544;52.018;5.810;2023-05-29T13:05:05;10.75;;;3.15;;
43883;SDS011;29544;52.018;5.810;2023-05-29T13:07:32;8.40;;;2.63;;
43883;SDS011;29544;52.018;5.810;2023-05-29T13:09:58;13.23;;;3.63;;
43883;SDS011;29544;52.018;5.810;2023-05-29T13:14:50;8.15;;;2.63;;
43883;SDS011;29544;52.018;5.810;2023-05-29T13:17:16;8.53;;;2.87;;
43883;SDS011;29544;52.018;5.810;2023-05-29T13:19:42;8.27;;;2.72;;
43883;SDS011;29544;52.018;5.810;2023-05-29T13:22:08;12.57;;;3.03;;
43883;SDS011;29544;52.018;5.810;2023-05-29T13:24:33;9.03;;;2.90;;
43883;SDS011;29544;52.018;5.810;2023-05-29T13:26:59;13.17;;;2.93;;
43883;SDS011;29544;52.018;5.810;2023-05-29T13:29:25;8.98;;;2.47;;
43883;SDS011;29544;52.018;5.810;2023-05-29T13:31:51;10.85;;;2.95;;
43883;SDS011;29544;52.018;5.810;2023-05-29T13:34:17;11.10;;;2.97;;
43883;SDS011;29544;52.018;5.810;2023-05-29T13:36:42;7.83;;;3.00;;
43883;SDS011;29544;52.018;5.810;2023-05-29T13:39:09;10.52;;;2.88;;
43883;SDS011;29544;52.018;5.810;2023-05-29T13:41:35;13.30;;;2.58;;
43883;SDS011;29544;52.018;5.810;2023-05-29T13:44:01;10.80;;;3.03;;
43883;SDS011;29544;52.018;5.810;2023-05-29T13:46:26;10.50;;;3.40;;
43883;SDS011;29544;52.018;5.810;2023-05-29T13:48:52;15.67;;;3.67;;
43883;SDS011;29544;52.018;5.810;2023-05-29T13:51:17;7.85;;;2.35;;
43883;SDS011;29544;52.018;5.810;2023-05-29T13:53:43;12.77;;;3.00;;
43883;SDS011;29544;52.018;5.810;2023-05-29T13:56:08;8.20;;;3.03;;
43883;SDS011;29544;52.018;5.810;2023-05-29T13:58:34;12.73;;;2.70;;
43883;SDS011;29544;52.018;5.810;2023-05-29T14:00:59;7.80;;;2.70;;
43883;SDS011;29544;52.018;5.810;2023-05-29T14:03:25;9.17;;;2.50;;
43883;SDS011;29544;52.018;5.810;2023-05-29T14:05:53;10.85;;;2.95;;
43883;SDS011;29544;52.018;5.810;2023-05-29T14:08:19;8.18;;;2.25;;
43883;SDS011;29544;52.018;5.810;2023-05-29T14:10:45;6.30;;;1.87;;
43883;SDS011;29544;52.018;5.810;2023-05-29T14:13:10;9.97;;;2.67;;
43883;SDS011;29544;52.018;5.810;2023-05-29T14:15:36;10.70;;;2.80;;
43883;SDS011;29544;52.018;5.810;2023-05-29T14:18:01;6.93;;;2.70;;
43883;SDS011;29544;52.018;5.810;2023-05-29T14:20:27;9.03;;;2.80;;
43883;SDS011;29544;52.018;5.810;2023-05-29T14:22:53;8.70;;;2.70;;
43883;SDS011;29544;52.018;5.810;2023-05-29T14:25:19;9.18;;;2.60;;
43883;SDS011;29544;52.018;5.810;2023-05-29T14:27:45;10.98;;;2.75;;
43883;SDS011;29544;52.018;5.810;2023-05-29T14:30:10;10.23;;;2.90;;
43883;SDS011;29544;52.018;5.810;2023-05-29T14:32:36;11.87;;;3.10;;
43883;SDS011;29544;52.018;5.810;2023-05-29T14:35:02;8.37;;;2.47;;
43883;SDS011;29544;52.018;5.810;2023-05-29T14:37:27;10.10;;;3.08;;
43883;SDS011;29544;52.018;5.810;2023-05-29T14:39:53;9.83;;;2.37;;
43883;SDS011;29544;52.018;5.810;2023-05-29T14:42:18;6.40;;;2.47;;
43883;SDS011;29544;52.018;5.810;2023-05-29T14:44:44;9.63;;;2.70;;
43883;SDS011;29544;52.018;5.810;2023-05-29T14:47:09;7.80;;;2.70;;
43883;SDS011;29544;52.018;5.810;2023-05-29T14:49:35;8.48;;;2.90;;
43883;SDS011;29544;52.018;5.810;2023-05-29T14:52:01;10.77;;;2.47;;
43883;SDS011;29544;52.018;5.810;2023-05-29T14:54:29;8.40;;;2.30;;
43883;SDS011;29544;52.018;5.810;2023-05-29T14:56:54;8.80;;;2.77;;
43883;SDS011;29544;52.018;5.810;2023-05-29T14:59:20;6.43;;;2.03;;
43883;SDS011;29544;52.018;5.810;2023-05-29T15:01:46;13.40;;;3.67;;
43883;SDS011;29544;52.018;5.810;2023-05-29T15:04:11;6.90;;;2.27;;
43883;SDS011;29544;52.018;5.810;2023-05-29T15:06:37;12.47;;;2.80;;
43883;SDS011;29544;52.018;5.810;2023-05-29T15:09:02;6.73;;;2.50;;
43883;SDS011;29544;52.018;5.810;2023-05-29T15:11:28;6.53;;;2.13;;
43883;SDS011;29544;52.018;5.810;2023-05-29T15:13:54;8.60;;;3.00;;
43883;SDS011;29544;52.018;5.810;2023-05-29T15:16:20;8.00;;;3.23;;
43883;SDS011;29544;52.018;5.810;2023-05-29T15:18:45;8.30;;;2.17;;
43883;SDS011;29544;52.018;5.810;2023-05-29T15:21:11;11.97;;;3.57;;
43883;SDS011;29544;52.018;5.810;2023-05-29T15:23:36;6.67;;;2.37;;
43883;SDS011;29544;52.018;5.810;2023-05-29T15:26:03;6.57;;;2.30;;